Time;durP1;ratioP1;P1;durP2;ratioP2;P2;SDS_P1;SDS_P2;PMS_P1;PMS_P2;Temp;Humidity;BMP_temperature;BMP_pressure;BME280_temperature;BME280_humidity;BME280_pressure;Samples;Min_cycle;Max_cycle;Signal;HPM_P1;HPM_P2
2024/03/09 05:00:48;;;;;;;9.65;6.00;;;1.00;99.90;;;;;;5660043;23;20537;-71
2024/03/09 05:03:16;;;;;;;15.80;5.50;;;1.00;99.90;;;;;;4898426;29;20207;-71
2024/03/09 05:05:43;;;;;;;8.50;7.10;;;1.00;99.90;;;;;;4895704;29;20879;-71
2024/03/09 05:08:10;;;;;;;13.48;5.45;;;1.00;99.90;;;;;;4896854;29;20233;-70
2024/03/09 05:10:37;;;;;;;12.55;6.20;;;1.00;99.90;;;;;;4898104;29;20252;-71
2024/03/09 05:13:06;;;;;;;14.80;6.95;;;1.00;99.90;;;;;;4898488;29;20255;-71
2024/03/09 05:15:33;;;;;;;15.20;8.38;;;1.00;99.90;;;;;;4901368;29;20207;-71
2024/03/09 05:18:07;;;;;;;8.05;3.72;;;1.00;99.90;;;;;;4895551;29;20220;-71
2024/03/09 05:20:34;;;;;;;15.02;8.57;;;1.00;99.90;;;;;;4897422;29;20236;-71
2024/03/09 05:23:04;;;;;;;16.45;7.70;;;1.10;99.90;;;;;;4898463;29;20270;-71
2024/03/09 05:25:31;;;;;;;14.02;6.57;;;1.20;99.90;;;;;;4897540;29;20215;-71
2024/03/09 05:27:58;;;;;;;9.95;6.68;;;1.10;99.90;;;;;;4895441;29;20352;-71
2024/03/09 05:30:28;;;;;;;12.07;9.10;;;1.20;99.90;;;;;;4897212;29;20334;-70
2024/03/09 05:32:57;;;;;;;20.05;7.78;;;1.20;99.90;;;;;;4896114;29;20281;-70
2024/03/09 05:35:26;;;;;;;11.45;5.40;;;1.20;99.90;;;;;;4901033;29;20207;-70
2024/03/09 05:37:54;;;;;;;11.50;8.05;;;1.20;99.90;;;;;;4896894;29;20948;-71
2024/03/09 05:40:21;;;;;;;15.40;8.43;;;1.20;99.90;;;;;;4896336;29;20544;-71
2024/03/09 05:42:50;;;;;;;20.95;8.25;;;1.20;99.90;;;;;;4895867;29;20213;-70
2024/03/09 05:45:20;;;;;;;19.23;7.60;;;1.20;99.90;;;;;;4899817;29;20208;-73
2024/03/09 05:47:47;;;;;;;19.77;8.63;;;1.30;99.90;;;;;;4895186;29;20230;-71
2024/03/09 05:50:15;;;;;;;11.43;5.80;;;1.30;99.90;;;;;;4895691;29;20216;-72
2024/03/09 05:52:44;;;;;;;11.20;8.23;;;1.30;99.90;;;;;;4891862;29;20255;-71
2024/03/09 05:55:11;;;;;;;11.63;6.35;;;1.30;99.90;;;;;;4895985;29;20213;-72
2024/03/09 05:57:39;;;;;;;15.63;7.75;;;1.30;99.90;;;;;;4896957;29;20543;-72
2024/03/09 06:00:08;;;;;;;14.13;8.15;;;1.30;99.90;;;;;;4897051;29;20208;-71
2024/03/09 06:02:39;;;;;;;17.65;8.40;;;1.40;99.90;;;;;;4896824;29;20307;-72
2024/03/09 06:05:07;;;;;;;15.80;8.38;;;1.40;99.90;;;;;;4898336;29;20227;-71
2024/03/09 06:07:37;;;;;;;13.32;9.30;;;1.40;99.90;;;;;;4893085;29;20238;-72
2024/03/09 06:10:07;;;;;;;12.10;7.97;;;1.40;99.90;;;;;;4899029;29;20633;-71
2024/03/09 06:12:34;;;;;;;14.80;7.85;;;1.50;99.90;;;;;;4894165;29;20223;-71
2024/03/09 06:15:01;;;;;;;15.13;7.30;;;1.40;99.90;;;;;;4893659;29;20218;-71
2024/03/09 06:17:29;;;;;;;8.98;6.68;;;1.40;99.90;;;;;;4897529;29;20217;-71
2024/03/09 06:19:56;;;;;;;10.75;8.30;;;1.50;99.90;;;;;;4894841;29;20207;-72
2024/03/09 06:22:22;;;;;;;8.05;6.25;;;1.60;99.90;;;;;;4894291;29;20591;-71
2024/03/09 06:24:50;;;;;;;11.75;8.00;;;1.60;99.90;;;;;;4893901;29;20221;-71
2024/03/09 06:27:18;;;;;;;13.48;8.90;;;1.60;99.90;;;;;;4895225;29;20212;-71
2024/03/09 06:29:45;;;;;;;8.85;6.30;;;1.60;99.90;;;;;;4895401;29;20212;-71
2024/03/09 06:32:12;;;;;;;10.25;8.00;;;1.60;99.90;;;;;;4892847;29;20253;-71
2024/03/09 06:34:42;;;;;;;23.75;9.45;;;1.70;99.90;;;;;;4897855;29;20234;-71
2024/03/09 06:37:09;;;;;;;8.25;5.95;;;1.70;99.90;;;;;;4895683;29;20243;-71
2024/03/09 06:39:38;;;;;;;10.55;7.10;;;1.70;99.90;;;;;;4888356;29;20638;-71
2024/03/09 06:42:06;;;;;;;12.52;8.23;;;1.80;99.90;;;;;;4890113;29;20244;-71
2024/03/09 06:44:34;;;;;;;17.95;11.07;;;1.80;99.90;;;;;;4899334;29;20294;-72
2024/03/09 06:47:00;;;;;;;17.92;9.23;;;1.90;99.90;;;;;;4897231;29;20226;-70
2024/03/09 06:49:27;;;;;;;10.85;8.15;;;1.90;99.90;;;;;;4892448;29;20226;-70
2024/03/09 06:51:55;;;;;;;17.50;8.48;;;1.90;99.90;;;;;;4890024;29;20241;-71
2024/03/09 06:54:22;;;;;;;9.95;7.03;;;2.00;99.90;;;;;;4891740;29;20218;-71
2024/03/09 06:56:51;;;;;;;11.05;8.35;;;2.10;99.90;;;;;;4894598;29;20608;-70
2024/03/09 06:59:19;;;;;;;7.78;6.75;;;2.10;99.90;;;;;;4894952;29;20209;-71
2024/03/09 07:01:50;;;;;;;15.07;8.98;;;2.20;99.90;;;;;;4892067;29;20260;-71
2024/03/09 07:04:18;;;;;;;9.13;7.15;;;2.20;99.90;;;;;;4889679;29;20240;-71
2024/03/09 07:06:45;;;;;;;13.10;8.73;;;2.20;99.90;;;;;;4893754;29;20282;-71
2024/03/09 07:09:12;;;;;;;15.77;6.70;;;2.30;99.90;;;;;;4889798;29;20663;-71
2024/03/09 07:11:39;;;;;;;9.75;6.82;;;2.30;99.90;;;;;;4892821;29;20670;-71
2024/03/09 07:14:05;;;;;;;10.73;9.60;;;2.40;99.90;;;;;;4892820;29;20220;-70
2024/03/09 07:16:33;;;;;;;11.40;7.75;;;2.50;99.90;;;;;;4894263;29;20210;-71
2024/03/09 07:19:01;;;;;;;10.88;5.90;;;2.60;99.90;;;;;;4888991;29;21199;-71
2024/03/09 07:21:29;;;;;;;23.00;14.48;;;2.60;99.90;;;;;;4890203;29;20242;-71
2024/03/09 07:23:56;;;;;;;18.10;10.75;;;2.70;99.90;;;;;;4888999;29;20306;-71
2024/03/09 07:26:23;;;;;;;17.58;10.32;;;2.70;99.90;;;;;;4893343;29;20293;-71
2024/03/09 07:28:49;;;;;;;15.88;9.80;;;2.80;99.90;;;;;;4893938;29;20234;-71
2024/03/09 07:31:16;;;;;;;20.13;9.63;;;2.90;99.90;;;;;;4894955;29;20235;-70
2024/03/09 07:33:43;;;;;;;12.98;6.75;;;2.90;99.90;;;;;;4893390;29;20237;-71
2024/03/09 07:36:12;;;;;;;21.35;10.52;;;3.00;99.90;;;;;;4894346;29;20212;-69
2024/03/09 07:38:38;;;;;;;12.00;10.88;;;3.10;99.90;;;;;;4894240;29;20340;-70
2024/03/09 07:41:07;;;;;;;13.00;8.82;;;3.10;99.90;;;;;;4893751;29;20241;-70
2024/03/09 07:43:34;;;;;;;13.07;9.35;;;3.20;99.90;;;;;;4893351;29;20230;-70
2024/03/09 07:46:04;;;;;;;18.70;11.20;;;3.30;99.90;;;;;;4893970;29;20228;-70
2024/03/09 07:48:30;;;;;;;19.95;11.52;;;3.40;99.90;;;;;;4894775;29;20567;-71
2024/03/09 07:50:57;;;;;;;11.38;7.57;;;3.50;99.90;;;;;;4893747;29;20238;-71
2024/03/09 07:53:25;;;;;;;19.95;11.25;;;3.50;99.90;;;;;;4891790;29;20221;-71
2024/03/09 07:55:53;;;;;;;16.85;11.02;;;3.60;99.90;;;;;;4890541;29;20218;-71
2024/03/09 07:58:21;;;;;;;6.05;4.85;;;3.60;99.90;;;;;;4894139;29;20203;-71
2024/03/09 08:00:49;;;;;;;16.55;10.35;;;3.70;99.90;;;;;;4895586;29;20250;-71
2024/03/09 08:03:17;;;;;;;19.10;11.15;;;3.80;99.90;;;;;;4893544;29;20275;-71
2024/03/09 08:05:44;;;;;;;21.52;10.73;;;3.80;99.90;;;;;;4894998;29;20666;-71
2024/03/09 08:08:12;;;;;;;9.55;8.25;;;3.90;99.90;;;;;;4893617;29;20246;-71
2024/03/09 08:10:46;;;;;;;12.65;6.63;;;3.90;99.90;;;;;;4890432;29;20963;-70
2024/03/09 08:13:13;;;;;;;19.45;9.88;;;4.10;99.90;;;;;;4895354;29;20777;-71
2024/03/09 08:15:40;;;;;;;3.28;3.08;;;4.20;99.90;;;;;;4895969;29;20207;-70
2024/03/09 08:18:07;;;;;;;13.65;9.70;;;4.30;99.90;;;;;;4895211;29;20210;-70
2024/03/09 08:20:34;;;;;;;16.08;7.38;;;4.40;99.90;;;;;;4897142;29;20239;-71
2024/03/09 08:23:01;;;;;;;11.32;8.32;;;4.50;99.90;;;;;;4896467;29;20705;-71
2024/03/09 08:25:28;;;;;;;22.83;10.98;;;4.50;99.90;;;;;;4896142;29;20241;-71
2024/03/09 08:27:58;;;;;;;22.88;12.07;;;4.60;99.90;;;;;;4897296;29;20246;-70
2024/03/09 08:30:26;;;;;;;17.95;9.07;;;4.70;99.90;;;;;;4897094;29;20615;-71
2024/03/09 08:32:54;;;;;;;10.77;7.15;;;4.70;99.90;;;;;;4896557;29;20623;-72
2024/03/09 08:35:22;;;;;;;8.05;5.40;;;4.80;99.90;;;;;;4895352;29;20576;-71
2024/03/09 08:37:52;;;;;;;9.27;5.32;;;4.90;99.90;;;;;;4897093;29;20648;-71
2024/03/09 08:40:20;;;;;;;13.45;5.70;;;5.00;99.90;;;;;;4895519;29;20241;-71
2024/03/09 08:42:48;;;;;;;14.40;8.57;;;5.10;99.90;;;;;;4897200;29;20283;-72
2024/03/09 08:45:17;;;;;;;25.40;9.85;;;5.20;99.90;;;;;;4894660;29;20219;-72
2024/03/09 08:47:42;;;;;;;14.82;7.15;;;5.30;99.90;;;;;;4896244;29;20203;-71
2024/03/09 08:50:11;;;;;;;16.53;7.03;;;5.30;99.90;;;;;;4895428;29;20338;-72
2024/03/09 08:52:38;;;;;;;10.43;5.18;;;5.40;99.90;;;;;;4893884;29;20243;-71
2024/03/09 08:55:09;;;;;;;18.80;9.75;;;5.50;99.90;;;;;;4898354;29;20613;-71
2024/03/09 08:57:36;;;;;;;19.33;9.55;;;5.60;99.90;;;;;;4898130;29;20682;-71
2024/03/09 09:00:05;;;;;;;13.52;7.95;;;5.60;99.90;;;;;;4894501;29;20203;-71
2024/03/09 09:02:33;;;;;;;12.80;8.30;;;5.70;99.90;;;;;;4895426;29;20245;-71
2024/03/09 09:05:00;;;;;;;20.42;10.00;;;5.80;99.90;;;;;;4899853;29;20220;-71
2024/03/09 09:07:27;;;;;;;9.50;6.85;;;5.90;99.90;;;;;;4895291;29;20211;-71
2024/03/09 09:09:54;;;;;;;16.50;10.98;;;6.00;99.90;;;;;;4894350;29;20651;-72
2024/03/09 09:12:20;;;;;;;10.10;7.55;;;5.90;99.90;;;;;;4897288;29;20234;-71
2024/03/09 09:14:47;;;;;;;9.95;7.07;;;5.90;99.90;;;;;;4897124;29;20283;-71
2024/03/09 09:17:14;;;;;;;7.55;6.18;;;6.00;99.90;;;;;;4895163;29;20218;-71
2024/03/09 09:19:42;;;;;;;5.45;4.90;;;6.10;99.90;;;;;;4895006;29;20560;-72
2024/03/09 09:22:10;;;;;;;17.40;7.93;;;6.10;99.90;;;;;;4894254;29;20232;-72
2024/03/09 09:24:37;;;;;;;19.33;9.15;;;6.20;99.90;;;;;;4895261;29;20207;-72
2024/03/09 09:27:04;;;;;;;17.80;8.38;;;6.30;99.90;;;;;;4894851;29;20211;-72
2024/03/09 09:29:31;;;;;;;14.05;9.07;;;6.30;99.90;;;;;;4898856;29;20225;-72
2024/03/09 09:32:00;;;;;;;13.70;6.57;;;6.40;99.90;;;;;;4901699;29;20231;-72
2024/03/09 09:34:28;;;;;;;5.13;3.45;;;6.60;99.90;;;;;;4894179;29;20577;-72
2024/03/09 09:36:56;;;;;;;14.23;6.93;;;6.60;99.90;;;;;;4897260;29;20228;-72
2024/03/09 09:39:28;;;;;;;10.88;6.53;;;6.80;99.90;;;;;;4897310;29;20212;-72
2024/03/09 09:41:56;;;;;;;12.80;8.90;;;6.80;99.90;;;;;;4897335;29;20231;-72
2024/03/09 09:44:26;;;;;;;14.25;8.40;;;6.80;99.90;;;;;;4894112;29;20272;-72
2024/03/09 09:46:53;;;;;;;17.15;10.82;;;6.90;99.90;;;;;;4894931;29;20216;-71
2024/03/09 09:49:22;;;;;;;21.23;11.20;;;7.00;99.90;;;;;;4894912;29;21582;-71
2024/03/09 09:51:51;;;;;;;18.10;9.73;;;7.00;99.90;;;;;;4895689;29;20231;-72
2024/03/09 09:54:22;;;;;;;15.15;9.65;;;7.10;99.90;;;;;;4892943;29;20777;-69
2024/03/09 09:56:49;;;;;;;9.30;7.78;;;7.20;99.90;;;;;;4895349;29;20212;-67
2024/03/09 09:59:15;;;;;;;13.70;8.00;;;7.20;99.90;;;;;;4894118;29;20567;-68
2024/03/09 10:01:44;;;;;;;9.80;7.25;;;7.10;99.90;;;;;;4895900;29;20300;-67
2024/03/09 10:04:11;;;;;;;15.13;8.68;;;7.10;99.90;;;;;;4892018;29;20255;-67
2024/03/09 10:06:38;;;;;;;16.00;8.85;;;7.20;99.90;;;;;;4889567;29;20550;-72
2024/03/09 10:09:05;;;;;;;22.65;8.32;;;7.30;99.90;;;;;;4891796;29;20232;-71
2024/03/09 10:11:33;;;;;;;13.50;8.52;;;7.30;99.90;;;;;;4894881;29;20227;-71
2024/03/09 10:14:01;;;;;;;12.38;7.20;;;7.40;99.90;;;;;;4894167;29;20241;-71
2024/03/09 10:16:28;;;;;;;8.07;6.20;;;7.50;99.90;;;;;;4894819;29;20216;-71
2024/03/09 10:18:57;;;;;;;14.57;8.68;;;7.60;99.90;;;;;;4894614;29;20234;-71
2024/03/09 10:21:29;;;;;;;10.55;5.20;;;7.70;99.90;;;;;;4894538;29;20245;-72
2024/03/09 10:24:02;;;;;;;11.13;8.27;;;7.80;99.90;;;;;;4893261;29;20262;-72
2024/03/09 10:26:29;;;;;;;10.27;7.22;;;7.90;99.90;;;;;;4894347;29;20213;-72
2024/03/09 10:28:59;;;;;;;12.70;8.18;;;8.00;99.90;;;;;;4895568;29;20235;-72
2024/03/09 10:31:26;;;;;;;12.75;9.23;;;8.10;99.90;;;;;;4894318;29;20313;-72
2024/03/09 10:33:54;;;;;;;15.85;7.50;;;8.10;99.90;;;;;;4893210;29;20709;-71
2024/03/09 10:36:23;;;;;;;18.15;10.80;;;8.20;99.90;;;;;;4893686;29;20259;-71
2024/03/09 10:38:51;;;;;;;12.75;9.95;;;8.40;99.90;;;;;;4895109;29;20223;-72
2024/03/09 10:41:21;;;;;;;15.20;6.70;;;8.40;99.90;;;;;;4894800;29;20228;-72
2024/03/09 10:43:49;;;;;;;9.75;6.22;;;8.60;99.90;;;;;;4894355;29;20223;-74
2024/03/09 10:46:20;;;;;;;13.10;5.88;;;8.70;99.90;;;;;;4893479;29;20211;-71
2024/03/09 10:48:51;;;;;;;12.02;7.30;;;8.80;99.90;;;;;;4894832;29;20654;-71
2024/03/09 10:51:25;;;;;;;10.20;6.28;;;8.80;99.90;;;;;;4894456;29;20238;-71
2024/03/09 10:54:06;;;;;;;15.73;5.80;;;8.80;99.90;;;;;;4892793;29;20223;-69
2024/03/09 10:56:33;;;;;;;13.27;7.10;;;8.80;99.90;;;;;;4894092;29;20241;-69
2024/03/09 10:59:03;;;;;;;3.88;3.58;;;8.80;99.90;;;;;;4894128;29;20308;-71
2024/03/09 11:01:33;;;;;;;12.15;5.53;;;8.80;99.90;;;;;;4893307;29;20697;-70
2024/03/09 11:04:00;;;;;;;11.00;8.15;;;8.80;99.90;;;;;;4893938;29;20223;-70
2024/03/09 11:06:28;;;;;;;8.50;5.70;;;8.80;99.90;;;;;;4893715;29;20203;-72
2024/03/09 11:08:56;;;;;;;5.95;5.45;;;8.90;99.90;;;;;;4894344;29;20263;-71
2024/03/09 11:11:26;;;;;;;4.70;4.10;;;8.90;99.90;;;;;;4890298;29;20233;-71
2024/03/09 11:13:53;;;;;;;3.80;3.17;;;8.90;99.90;;;;;;4893273;29;20663;-71
2024/03/09 11:16:20;;;;;;;3.88;3.53;;;8.90;99.90;;;;;;4892236;29;20214;-71
2024/03/09 11:18:55;;;;;;;5.03;4.57;;;8.80;99.90;;;;;;4893766;29;20270;-71
2024/03/09 11:21:26;;;;;;;11.77;7.15;;;8.70;99.90;;;;;;4892634;29;20838;-71
2024/03/09 11:23:53;;;;;;;6.78;4.65;;;8.80;99.90;;;;;;4894228;29;20215;-72
2024/03/09 11:26:23;;;;;;;8.07;6.93;;;8.80;99.90;;;;;;4892272;29;20580;-71
2024/03/09 11:28:54;;;;;;;7.05;6.15;;;8.80;99.90;;;;;;4893591;29;20728;-71
2024/03/09 11:31:28;;;;;;;3.70;3.40;;;8.80;99.90;;;;;;4893268;29;20373;-70
2024/03/09 11:34:14;;;;;;;3.08;2.85;;;8.90;99.90;;;;;;4893310;29;20219;-70
2024/03/09 11:36:45;;;;;;;3.88;3.40;;;9.00;99.90;;;;;;4887064;29;20212;-69
2024/03/09 11:39:13;;;;;;;8.48;4.72;;;9.00;99.90;;;;;;4894564;29;20203;-71
2024/03/09 11:41:45;;;;;;;4.00;2.55;;;9.10;99.90;;;;;;4897923;29;20318;-71
2024/03/09 11:44:13;;;;;;;4.75;4.35;;;9.10;99.90;;;;;;4897481;29;20222;-72
2024/03/09 11:46:40;;;;;;;8.80;6.15;;;9.20;99.90;;;;;;4896702;29;20286;-72
2024/03/09 11:49:08;;;;;;;6.38;5.68;;;9.20;99.90;;;;;;4899072;29;20235;-72
2024/03/09 11:51:36;;;;;;;10.43;6.45;;;9.30;99.90;;;;;;4903171;29;20231;-73
2024/03/09 11:54:07;;;;;;;4.50;4.07;;;9.40;99.90;;;;;;4901661;29;20402;-72
2024/03/09 11:56:34;;;;;;;5.95;5.18;;;9.50;99.90;;;;;;4899833;29;20211;-72
2024/03/09 11:59:02;;;;;;;13.32;6.60;;;9.40;99.90;;;;;;4899738;29;20226;-71
2024/03/09 12:01:29;;;;;;;4.85;4.32;;;9.40;99.90;;;;;;4896344;29;20717;-71
2024/03/09 12:03:59;;;;;;;6.45;5.75;;;9.40;99.90;;;;;;4896082;29;20325;-69
2024/03/09 12:06:27;;;;;;;4.18;3.30;;;9.30;99.90;;;;;;4899897;29;20243;-70
2024/03/09 12:08:55;;;;;;;6.00;4.95;;;9.50;99.90;;;;;;4895866;29;20323;-72
2024/03/09 12:11:23;;;;;;;5.45;3.70;;;9.50;99.90;;;;;;4896589;29;20227;-72
2024/03/09 12:13:50;;;;;;;8.32;4.63;;;9.50;99.90;;;;;;4899632;29;20213;-72
2024/03/09 12:16:17;;;;;;;10.70;6.35;;;9.60;99.90;;;;;;4898484;29;20212;-71
2024/03/09 12:18:47;;;;;;;5.40;4.07;;;9.70;99.90;;;;;;4899308;29;20359;-71
2024/03/09 12:21:15;;;;;;;8.55;5.90;;;9.70;99.90;;;;;;4896106;29;20228;-71
2024/03/09 12:23:48;;;;;;;6.43;4.68;;;9.80;99.90;;;;;;4897012;29;20211;-72
2024/03/09 12:26:15;;;;;;;10.82;6.68;;;9.80;99.90;;;;;;4893664;29;20223;-72
2024/03/09 12:28:43;;;;;;;10.38;7.18;;;9.90;99.90;;;;;;4896726;29;20234;-71
2024/03/09 12:31:13;;;;;;;7.93;4.60;;;9.80;99.90;;;;;;4895624;29;20237;-70
2024/03/09 12:33:42;;;;;;;4.93;4.60;;;9.80;99.90;;;;;;4897009;29;20236;-71
2024/03/09 12:36:09;;;;;;;5.65;4.78;;;9.70;99.90;;;;;;4896032;29;20233;-71
2024/03/09 12:38:36;;;;;;;8.82;5.55;;;9.70;99.90;;;;;;4896158;29;20212;-71
2024/03/09 12:41:09;;;;;;;4.50;2.90;;;9.60;99.90;;;;;;4895427;29;20228;-71
2024/03/09 12:43:38;;;;;;;12.45;6.43;;;9.60;99.90;;;;;;4896062;29;20212;-71
2024/03/09 12:46:07;;;;;;;11.20;6.97;;;9.60;99.90;;;;;;4896368;29;20307;-72
2024/03/09 12:48:35;;;;;;;7.60;6.10;;;9.60;99.90;;;;;;4896084;29;20215;-72
2024/03/09 12:51:04;;;;;;;6.97;5.00;;;9.70;99.90;;;;;;4895118;29;20243;-72
2024/03/09 12:53:33;;;;;;;12.05;6.68;;;9.70;99.90;;;;;;4896182;29;20223;-72
2024/03/09 12:56:02;;;;;;;5.57;4.95;;;9.70;99.90;;;;;;4894938;29;20263;-72
2024/03/09 12:58:30;;;;;;;8.48;5.43;;;9.70;99.90;;;;;;4896175;29;20212;-71
2024/03/09 13:00:57;;;;;;;12.27;5.82;;;9.70;99.90;;;;;;4896342;29;20235;-72
2024/03/09 13:03:24;;;;;;;7.40;5.18;;;9.70;99.90;;;;;;4896083;29;20215;-72
2024/03/09 13:05:51;;;;;;;5.25;3.40;;;9.70;99.90;;;;;;4896833;29;20222;-72
2024/03/09 13:08:18;;;;;;;10.70;7.10;;;9.80;99.90;;;;;;4890378;29;20265;-72
2024/03/09 13:10:47;;;;;;;7.78;5.22;;;9.80;99.90;;;;;;4894799;29;20243;-73
2024/03/09 13:13:14;;;;;;;6.03;4.20;;;9.80;99.90;;;;;;4893896;29;20235;-72
2024/03/09 13:15:44;;;;;;;6.93;6.20;;;9.90;99.90;;;;;;4896037;29;20264;-72
2024/03/09 13:18:11;;;;;;;4.00;3.60;;;9.90;99.90;;;;;;4896389;29;20214;-72
2024/03/09 13:20:40;;;;;;;10.75;6.40;;;9.90;99.90;;;;;;4894586;29;20230;-72
2024/03/09 13:23:12;;;;;;;15.30;5.30;;;9.90;99.90;;;;;;4895882;29;20222;-72
2024/03/09 13:25:42;;;;;;;9.30;6.07;;;10.00;99.90;;;;;;4895889;29;20215;-72
2024/03/09 13:28:11;;;;;;;10.38;5.57;;;10.00;99.90;;;;;;4894687;29;20273;-72
2024/03/09 13:30:39;;;;;;;5.82;5.30;;;10.20;99.90;;;;;;4895052;29;20270;-72
2024/03/09 13:33:09;;;;;;;10.50;6.22;;;10.30;99.90;;;;;;4894015;29;20232;-72
2024/03/09 13:35:37;;;;;;;6.63;4.32;;;10.40;99.90;;;;;;4894883;29;20646;-72
2024/03/09 13:38:04;;;;;;;9.40;5.68;;;10.40;99.90;;;;;;4895608;29;20253;-72
2024/03/09 13:40:31;;;;;;;7.03;4.97;;;10.40;99.90;;;;;;4895819;29;20278;-72
2024/03/09 13:42:59;;;;;;;4.95;4.60;;;10.40;99.90;;;;;;4895880;29;20244;-72
2024/03/09 13:45:27;;;;;;;8.98;6.63;;;10.30;99.90;;;;;;4895014;29;20226;-72
2024/03/09 13:48:07;;;;;;;9.07;5.97;;;10.30;99.90;;;;;;4895634;29;20216;-72
2024/03/09 13:50:34;;;;;;;2.30;1.98;;;10.20;99.90;;;;;;4895324;29;20249;-72
2024/03/09 13:53:01;;;;;;;10.98;7.45;;;10.30;99.90;;;;;;4895029;29;20257;-71
2024/03/09 13:55:30;;;;;;;14.55;7.60;;;10.30;99.90;;;;;;4895594;29;20216;-71
2024/03/09 13:57:57;;;;;;;10.82;6.65;;;10.20;99.90;;;;;;4895600;29;20214;-71
2024/03/09 14:00:27;;;;;;;9.68;6.25;;;10.10;99.90;;;;;;4895313;29;20308;-72
2024/03/09 14:02:56;;;;;;;7.90;4.85;;;10.00;99.90;;;;;;4895753;29;20219;-71
2024/03/09 14:05:25;;;;;;;11.23;7.32;;;10.00;99.90;;;;;;4896574;29;20213;-71
2024/03/09 14:07:56;;;;;;;12.40;5.68;;;10.00;99.90;;;;;;4894226;29;20218;-71
2024/03/09 14:10:24;;;;;;;11.85;6.57;;;9.90;99.90;;;;;;4895292;29;20249;-71
2024/03/09 14:12:53;;;;;;;9.73;4.35;;;10.00;99.90;;;;;;4893943;29;20219;-71
2024/03/09 14:15:22;;;;;;;7.43;6.68;;;10.00;99.90;;;;;;4894787;29;20219;-71
2024/03/09 14:17:49;;;;;;;14.98;6.30;;;10.00;99.90;;;;;;4894077;29;20219;-71
2024/03/09 14:20:21;;;;;;;12.25;6.95;;;10.00;99.90;;;;;;4894829;29;20201;-71
2024/03/09 14:22:52;;;;;;;8.27;5.45;;;10.00;99.90;;;;;;4892982;29;20215;-71
2024/03/09 14:25:24;;;;;;;6.60;5.97;;;10.00;99.90;;;;;;4894528;29;20299;-71
2024/03/09 14:27:51;;;;;;;12.50;7.88;;;10.00;99.90;;;;;;4894353;29;20534;-71
2024/03/09 14:30:24;;;;;;;14.35;6.57;;;10.00;99.90;;;;;;4894138;29;20231;-71
2024/03/09 14:32:50;;;;;;;10.07;5.70;;;10.00;99.90;;;;;;4893231;29;20304;-71
2024/03/09 14:35:17;;;;;;;13.60;7.07;;;9.90;99.90;;;;;;4896166;29;20222;-71
2024/03/09 14:37:44;;;;;;;11.05;7.35;;;9.90;99.90;;;;;;4895367;29;20219;-71
2024/03/09 14:40:16;;;;;;;11.65;7.90;;;9.90;99.90;;;;;;4892779;29;20219;-71
2024/03/09 14:42:44;;;;;;;7.05;6.00;;;9.80;99.90;;;;;;4892650;29;20234;-71
2024/03/09 14:45:18;;;;;;;10.27;7.10;;;9.80;99.90;;;;;;4893944;29;20216;-71
2024/03/09 14:47:48;;;;;;;4.65;4.35;;;9.70;99.90;;;;;;4893853;29;20704;-71
2024/03/09 14:50:16;;;;;;;11.43;6.85;;;9.80;99.90;;;;;;4894655;29;20596;-71
2024/03/09 14:52:43;;;;;;;5.00;4.47;;;9.80;99.90;;;;;;4892840;29;20225;-71
2024/03/09 14:55:10;;;;;;;13.82;6.88;;;9.80;99.90;;;;;;4891811;29;20234;-70
2024/03/09 14:57:39;;;;;;;10.93;7.03;;;9.80;99.90;;;;;;4893639;29;20279;-70
2024/03/09 15:00:14;;;;;;;12.82;6.25;;;9.80;99.90;;;;;;4894590;29;20208;-71
2024/03/09 15:02:40;;;;;;;7.35;6.70;;;9.80;99.90;;;;;;4892330;29;20212;-71
2024/03/09 15:05:07;;;;;;;10.17;7.30;;;9.80;99.90;;;;;;4893621;29;20219;-71
2024/03/09 15:07:33;;;;;;;7.57;4.45;;;9.90;99.90;;;;;;4892598;29;20234;-71
2024/03/09 15:10:00;;;;;;;4.93;4.03;;;9.80;99.90;;;;;;4886348;29;20208;-70
2024/03/09 15:12:27;;;;;;;14.13;7.78;;;9.80;99.90;;;;;;4890167;29;20232;-71
2024/03/09 15:14:55;;;;;;;8.52;6.55;;;9.80;99.90;;;;;;4890283;29;20280;-71
2024/03/09 15:17:22;;;;;;;10.75;7.35;;;9.80;99.90;;;;;;4892452;29;20663;-71
2024/03/09 15:19:50;;;;;;;10.45;5.53;;;9.80;99.90;;;;;;4893105;29;20225;-71
2024/03/09 15:22:16;;;;;;;14.63;6.47;;;9.70;99.90;;;;;;4892191;29;20267;-70
2024/03/09 15:24:44;;;;;;;11.35;7.20;;;9.80;99.90;;;;;;4889904;29;20541;-71
2024/03/09 15:27:12;;;;;;;10.60;7.60;;;9.80;99.90;;;;;;4890394;29;20216;-70
2024/03/09 15:29:39;;;;;;;9.45;5.32;;;9.70;99.90;;;;;;4890372;29;20649;-71
2024/03/09 15:32:09;;;;;;;17.70;9.10;;;9.70;99.90;;;;;;4891564;29;20771;-71
2024/03/09 15:34:36;;;;;;;7.82;5.75;;;9.70;99.90;;;;;;4892642;29;20299;-71
2024/03/09 15:37:03;;;;;;;14.80;8.73;;;9.70;99.90;;;;;;4893475;29;20212;-71
2024/03/09 15:39:31;;;;;;;10.45;7.25;;;9.70;99.90;;;;;;4891357;29;20211;-72
2024/03/09 15:41:58;;;;;;;4.78;4.38;;;9.60;99.90;;;;;;4893457;29;20243;-72
2024/03/09 15:44:25;;;;;;;9.48;6.00;;;9.70;99.90;;;;;;4890564;29;20207;-71
2024/03/09 15:46:52;;;;;;;13.38;8.10;;;9.60;99.90;;;;;;4889582;29;20211;-72
2024/03/09 15:49:20;;;;;;;4.20;2.70;;;9.60;99.90;;;;;;4893739;29;20329;-71
2024/03/09 15:51:47;;;;;;;14.65;8.65;;;9.60;99.90;;;;;;4891992;29;20689;-72
2024/03/09 15:54:17;;;;;;;14.35;8.65;;;9.60;99.90;;;;;;4891837;29;20215;-72
2024/03/09 15:56:47;;;;;;;12.35;7.50;;;9.60;99.90;;;;;;4893156;29;21465;-71
2024/03/09 15:59:14;;;;;;;10.18;7.93;;;9.70;99.90;;;;;;4888058;29;20539;-72
2024/03/09 16:01:41;;;;;;;9.82;7.00;;;9.60;99.90;;;;;;4892440;29;20236;-71
2024/03/09 16:04:09;;;;;;;10.07;7.30;;;9.60;99.90;;;;;;4890365;29;20268;-71
2024/03/09 16:06:37;;;;;;;12.55;7.78;;;9.60;99.90;;;;;;4889570;29;20655;-71
2024/03/09 16:09:11;;;;;;;14.57;9.20;;;9.60;99.90;;;;;;4893116;29;20290;-72
2024/03/09 16:11:38;;;;;;;10.15;6.55;;;9.60;99.90;;;;;;4891190;29;20424;-72
2024/03/09 16:14:11;;;;;;;9.90;7.20;;;9.60;99.90;;;;;;4890482;29;20663;-71
2024/03/09 16:16:38;;;;;;;12.55;6.80;;;9.50;99.90;;;;;;4888065;29;20236;-71
2024/03/09 16:19:05;;;;;;;19.35;8.95;;;9.50;99.90;;;;;;4895232;29;20217;-72
2024/03/09 16:21:34;;;;;;;8.85;6.80;;;9.60;99.90;;;;;;4893316;29;20219;-71
2024/03/09 16:24:03;;;;;;;8.38;5.50;;;9.60;99.90;;;;;;4892161;29;20251;-72
2024/03/09 16:26:33;;;;;;;9.93;7.65;;;9.50;99.90;;;;;;4899032;29;20241;-71
2024/03/09 16:29:02;;;;;;;10.25;8.25;;;9.50;99.90;;;;;;4896111;29;20216;-70
2024/03/09 16:31:29;;;;;;;9.27;6.13;;;9.50;99.90;;;;;;4895492;29;20234;-71
2024/03/09 16:33:56;;;;;;;15.75;8.70;;;9.40;99.90;;;;;;4893941;29;20213;-71
2024/03/09 16:36:23;;;;;;;9.80;4.30;;;9.40;99.90;;;;;;4901039;29;20210;-71
2024/03/09 16:38:49;;;;;;;12.90;7.80;;;9.40;99.90;;;;;;4896979;29;20222;-72
2024/03/09 16:41:22;;;;;;;10.73;6.57;;;9.30;99.90;;;;;;4896892;29;20699;-72
2024/03/09 16:43:52;;;;;;;12.32;7.10;;;9.30;99.90;;;;;;4895015;29;20219;-71
2024/03/09 16:46:18;;;;;;;11.60;8.85;;;9.30;99.90;;;;;;4894747;29;20591;-71
2024/03/09 16:48:48;;;;;;;14.45;7.85;;;9.20;99.90;;;;;;4895509;29;20226;-71
2024/03/09 16:51:16;;;;;;;13.82;6.65;;;9.10;99.90;;;;;;4901002;29;20378;-70
2024/03/09 16:53:42;;;;;;;11.27;8.27;;;9.10;99.90;;;;;;4893962;29;20664;-71
2024/03/09 16:56:08;;;;;;;7.33;6.60;;;9.10;99.90;;;;;;4898991;29;20216;-71
2024/03/09 16:58:38;;;;;;;17.02;7.13;;;9.10;99.90;;;;;;4897938;29;20932;-71
2024/03/09 17:01:05;;;;;;;7.20;3.83;;;9.00;99.90;;;;;;4895868;29;20238;-71
2024/03/09 17:03:34;;;;;;;11.55;8.00;;;8.90;99.90;;;;;;4896823;29;20621;-71
2024/03/09 17:06:02;;;;;;;12.07;7.93;;;8.90;99.90;;;;;;4896494;29;20211;-70
2024/03/09 17:08:29;;;;;;;15.60;8.10;;;8.80;99.90;;;;;;4892406;29;20207;-71
2024/03/09 17:10:57;;;;;;;13.60;6.03;;;8.70;99.90;;;;;;4895462;29;20713;-71
2024/03/09 17:13:24;;;;;;;16.45;9.45;;;8.60;99.90;;;;;;4896181;29;20218;-71
2024/03/09 17:15:52;;;;;;;12.70;6.90;;;8.50;99.90;;;;;;4896631;29;20211;-70
2024/03/09 17:18:20;;;;;;;14.75;7.38;;;8.50;99.90;;;;;;4894568;29;20215;-71
2024/03/09 17:20:47;;;;;;;12.50;7.53;;;8.40;99.90;;;;;;4895085;29;20340;-71
2024/03/09 17:23:17;;;;;;;16.20;8.00;;;8.30;99.90;;;;;;4893805;29;20208;-71
2024/03/09 17:25:47;;;;;;;10.80;8.48;;;8.20;99.90;;;;;;4894499;29;20215;-72
2024/03/09 17:28:19;;;;;;;15.00;8.20;;;8.20;99.90;;;;;;4897614;29;20211;-71
2024/03/09 17:30:46;;;;;;;12.20;7.75;;;8.10;99.90;;;;;;4893415;29;20627;-71
2024/03/09 17:33:15;;;;;;;10.88;7.13;;;8.00;99.90;;;;;;4890511;29;20243;-71
2024/03/09 17:35:42;;;;;;;13.35;8.57;;;7.90;99.90;;;;;;4894496;29;20299;-70
2024/03/09 17:38:08;;;;;;;11.77;7.97;;;7.80;99.90;;;;;;4891668;29;20611;-71
2024/03/09 17:40:36;;;;;;;12.77;8.38;;;7.80;99.90;;;;;;4889364;29;20615;-71
2024/03/09 17:43:03;;;;;;;17.38;8.65;;;7.70;99.90;;;;;;4889653;29;20241;-71
2024/03/09 17:45:30;;;;;;;13.32;7.38;;;7.70;99.90;;;;;;4891912;29;20215;-71
2024/03/09 17:47:57;;;;;;;10.68;7.40;;;7.50;99.90;;;;;;4895051;29;20209;-72
2024/03/09 17:50:26;;;;;;;10.93;8.50;;;7.50;99.90;;;;;;4894135;29;20204;-72
2024/03/09 17:52:54;;;;;;;13.55;8.07;;;7.40;99.90;;;;;;4895669;29;20277;-72